sensor_id;sensor_type;location;lat;lon;timestamp;pressure;altitude;pressure_sealevel;temperature;humidity
46408;BME280;32110;45.724;21.276;2023-07-22T00:02:10;100120.50;;;19.74;nan
46408;BME280;32110;45.724;21.276;2023-07-22T00:04:36;100092.28;;;19.68;nan
46408;BME280;32110;45.724;21.276;2023-07-22T00:07:01;100091.19;;;19.69;nan
46408;BME280;32110;45.724;21.276;2023-07-22T00:09:26;100107.22;;;19.69;nan
46408;BME280;32110;45.724;21.276;2023-07-22T00:11:52;100117.75;;;19.80;nan
46408;BME280;32110;45.724;21.276;2023-07-22T00:14:17;100120.22;;;19.76;nan
46408;BME280;32110;45.724;21.276;2023-07-22T00:16:42;100121.00;;;19.76;nan
46408;BME280;32110;45.724;21.276;2023-07-22T00:19:08;100104.03;;;19.67;nan
46408;BME280;32110;45.724;21.276;2023-07-22T00:21:33;100107.22;;;19.69;nan
46408;BME280;32110;45.724;21.276;2023-07-22T00:23:59;100110.41;;;19.71;nan
46408;BME280;32110;45.724;21.276;2023-07-22T00:26:25;100104.56;;;19.69;nan
46408;BME280;32110;45.724;21.276;2023-07-22T00:28:50;100087.75;;;19.69;nan
46408;BME280;32110;45.724;21.276;2023-07-22T00:31:16;100074.94;;;19.66;nan
46408;BME280;32110;45.724;21.276;2023-07-22T00:33:42;100092.22;;;19.73;nan
46408;BME280;32110;45.724;21.276;2023-07-22T00:36:07;100098.06;;;19.75;nan
46408;BME280;32110;45.724;21.276;2023-07-22T00:38:33;100093.50;;;19.76;nan
46408;BME280;32110;45.724;21.276;2023-07-22T00:40:58;100098.06;;;19.75;nan
46408;BME280;32110;45.724;21.276;2023-07-22T00:43:24;100099.91;;;19.75;nan
46408;BME280;32110;45.724;21.276;2023-07-22T00:45:51;100095.38;;;19.75;nan
46408;BME280;32110;45.724;21.276;2023-07-22T00:48:17;100110.19;;;19.68;nan
46408;BME280;32110;45.724;21.276;2023-07-22T00:50:43;100127.44;;;19.75;nan
46408;BME280;32110;45.724;21.276;2023-07-22T00:53:09;100119.19;;;19.72;nan
46408;BME280;32110;45.724;21.276;2023-07-22T00:55:34;100122.47;;;19.69;nan
46408;BME280;32110;45.724;21.276;2023-07-22T00:58:01;100126.44;;;19.71;nan
46408;BME280;32110;45.724;21.276;2023-07-22T01:00:26;100140.81;;;19.75;nan
46408;BME280;32110;45.724;21.276;2023-07-22T01:02:51;100133.06;;;19.74;nan
46408;BME280;32110;45.724;21.276;2023-07-22T01:05:17;100134.44;;;19.71;nan
46408;BME280;32110;45.724;21.276;2023-07-22T01:07:43;100110.25;;;19.63;nan
46408;BME280;32110;45.724;21.276;2023-07-22T01:10:09;100138.69;;;19.72;nan
46408;BME280;32110;45.724;21.276;2023-07-22T01:12:35;100141.97;;;19.69;nan
46408;BME280;32110;45.724;21.276;2023-07-22T01:15:01;100130.22;;;19.65;nan
46408;BME280;32110;45.724;21.276;2023-07-22T01:17:29;100150.66;;;19.75;nan
46408;BME280;32110;45.724;21.276;2023-07-22T01:19:54;100163.59;;;19.68;nan
46408;BME280;32110;45.724;21.276;2023-07-22T01:22:21;100166.28;;;19.68;nan
46408;BME280;32110;45.724;21.276;2023-07-22T01:24:47;100175.31;;;19.72;nan
46408;BME280;32110;45.724;21.276;2023-07-22T01:27:12;100170.25;;;19.70;nan
46408;BME280;32110;45.724;21.276;2023-07-22T01:29:39;100182.97;;;19.79;nan
46408;BME280;32110;45.724;21.276;2023-07-22T01:32:05;100161.75;;;19.68;nan
46408;BME280;32110;45.724;21.276;2023-07-22T01:34:30;100168.94;;;19.68;nan
46408;BME280;32110;45.724;21.276;2023-07-22T01:36:57;100163.59;;;19.68;nan
46408;BME280;32110;45.724;21.276;2023-07-22T01:39:22;100169.19;;;19.71;nan
46408;BME280;32110;45.724;21.276;2023-07-22T01:41:47;100150.66;;;19.56;nan
46408;BME280;32110;45.724;21.276;2023-07-22T01:44:14;100180.66;;;19.72;nan
46408;BME280;32110;45.724;21.276;2023-07-22T01:46:40;100195.53;;;19.78;nan
46408;BME280;32110;45.724;21.276;2023-07-22T01:49:09;100196.41;;;19.73;nan
46408;BME280;32110;45.724;21.276;2023-07-22T01:51:35;100199.78;;;19.79;nan
46408;BME280;32110;45.724;21.276;2023-07-22T01:54:03;100192.56;;;19.80;nan
46408;BME280;32110;45.724;21.276;2023-07-22T01:56:28;100185.13;;;19.76;nan
46408;BME280;32110;45.724;21.276;2023-07-22T01:58:54;100186.78;;;19.72;nan
46408;BME280;32110;45.724;21.276;2023-07-22T02:01:19;100187.88;;;19.71;nan
46408;BME280;32110;45.724;21.276;2023-07-22T02:03:44;100193.22;;;19.71;nan
46408;BME280;32110;45.724;21.276;2023-07-22T02:06:11;100192.13;;;19.72;nan
46408;BME280;32110;45.724;21.276;2023-07-22T02:08:37;100160.56;;;19.55;nan
46408;BME280;32110;45.724;21.276;2023-07-22T02:11:04;100190.75;;;19.75;nan
46408;BME280;32110;45.724;21.276;2023-07-22T02:13:33;100198.41;;;19.82;nan
46408;BME280;32110;45.724;21.276;2023-07-22T02:15:59;100195.22;;;19.80;nan
46408;BME280;32110;45.724;21.276;2023-07-22T02:18:25;100185.34;;;19.80;nan
46408;BME280;32110;45.724;21.276;2023-07-22T02:20:51;100187.28;;;19.74;nan
46408;BME280;32110;45.724;21.276;2023-07-22T02:23:16;100197.88;;;19.80;nan
46408;BME280;32110;45.724;21.276;2023-07-22T02:25:43;100208.06;;;19.77;nan
46408;BME280;32110;45.724;21.276;2023-07-22T02:28:09;100208.16;;;19.72;nan
46408;BME280;32110;45.724;21.276;2023-07-22T02:30:35;100223.81;;;19.79;nan
46408;BME280;32110;45.724;21.276;2023-07-22T02:33:02;100234.22;;;19.81;nan
46408;BME280;32110;45.724;21.276;2023-07-22T02:35:28;100239.06;;;19.79;nan
46408;BME280;32110;45.724;21.276;2023-07-22T02:37:54;100223.97;;;19.69;nan
46408;BME280;32110;45.724;21.276;2023-07-22T02:40:19;100235.69;;;19.73;nan
46408;BME280;32110;45.724;21.276;2023-07-22T02:42:45;100249.47;;;19.80;nan
46408;BME280;32110;45.724;21.276;2023-07-22T02:45:10;100244.41;;;19.79;nan
46408;BME280;32110;45.724;21.276;2023-07-22T02:47:36;100243.03;;;19.81;nan
46408;BME280;32110;45.724;21.276;2023-07-22T02:50:02;100251.06;;;19.81;nan
46408;BME280;32110;45.724;21.276;2023-07-22T02:52:28;100252.44;;;19.79;nan
46408;BME280;32110;45.724;21.276;2023-07-22T02:55:08;100223.81;;;19.79;nan
46408;BME280;32110;45.724;21.276;2023-07-22T02:57:36;100221.16;;;19.79;nan
46408;BME280;32110;45.724;21.276;2023-07-22T03:00:03;100233.88;;;19.87;nan
46408;BME280;32110;45.724;21.276;2023-07-22T03:02:32;100238.41;;;19.87;nan
46408;BME280;32110;45.724;21.276;2023-07-22T03:04:58;100226.41;;;19.84;nan
46408;BME280;32110;45.724;21.276;2023-07-22T03:07:24;100216.50;;;19.85;nan
46408;BME280;32110;45.724;21.276;2023-07-22T03:09:51;100196.91;;;19.75;nan
46408;BME280;32110;45.724;21.276;2023-07-22T03:12:17;100169.94;;;19.53;nan
46408;BME280;32110;45.724;21.276;2023-07-22T03:14:42;100221.66;;;19.81;nan
46408;BME280;32110;45.724;21.276;2023-07-22T03:17:07;100211.75;;;19.82;nan
46408;BME280;32110;45.724;21.276;2023-07-22T03:19:33;100197.97;;;19.74;nan
46408;BME280;32110;45.724;21.276;2023-07-22T03:21:58;100210.88;;;19.67;nan
46408;BME280;32110;45.724;21.276;2023-07-22T03:24:24;100227.38;;;19.74;nan
46408;BME280;32110;45.724;21.276;2023-07-22T03:26:50;100232.72;;;19.74;nan
46408;BME280;32110;45.724;21.276;2023-07-22T03:29:16;100230.97;;;19.84;nan
46408;BME280;32110;45.724;21.276;2023-07-22T03:31:41;100222.25;;;19.78;nan
46408;BME280;32110;45.724;21.276;2023-07-22T03:34:06;100234.78;;;19.77;nan
46408;BME280;32110;45.724;21.276;2023-07-22T03:36:32;100233.88;;;19.68;nan
46408;BME280;32110;45.724;21.276;2023-07-22T03:39:01;100245.19;;;19.79;nan
46408;BME280;32110;45.724;21.276;2023-07-22T03:41:26;100249.16;;;19.82;nan
46408;BME280;32110;45.724;21.276;2023-07-22T03:43:51;100235.19;;;19.71;nan
46408;BME280;32110;45.724;21.276;2023-07-22T03:46:17;100237.47;;;19.77;nan
46408;BME280;32110;45.724;21.276;2023-07-22T03:48:42;100219.84;;;19.76;nan
46408;BME280;32110;45.724;21.276;2023-07-22T03:51:07;100235.03;;;19.81;nan
46408;BME280;32110;45.724;21.276;2023-07-22T03:53:33;100239.06;;;19.79;nan
46408;BME280;32110;45.724;21.276;2023-07-22T03:55:58;100249.91;;;19.87;nan
46408;BME280;32110;45.724;21.276;2023-07-22T03:58:23;100232.06;;;19.83;nan
46408;BME280;32110;45.724;21.276;2023-07-22T04:00:49;100242.09;;;19.91;nan
46408;BME280;32110;45.724;21.276;2023-07-22T04:03:15;100242.44;;;19.84;nan
46408;BME280;32110;45.724;21.276;2023-07-22T04:05:40;100251.19;;;19.90;nan
46408;BME280;32110;45.724;21.276;2023-07-22T04:08:05;100256.53;;;19.90;nan
46408;BME280;32110;45.724;21.276;2023-07-22T04:10:31;100238.06;;;19.74;nan
46408;BME280;32110;45.724;21.276;2023-07-22T04:12:56;100265.84;;;19.92;nan
46408;BME280;32110;45.724;21.276;2023-07-22T04:15:21;100286.06;;;19.98;nan
46408;BME280;32110;45.724;21.276;2023-07-22T04:17:47;100292.78;;;19.96;nan
46408;BME280;32110;45.724;21.276;2023-07-22T04:20:12;100290.09;;;19.96;nan
46408;BME280;32110;45.724;21.276;2023-07-22T04:22:37;100282.09;;;19.96;nan
46408;BME280;32110;45.724;21.276;2023-07-22T04:25:03;100285.34;;;19.93;nan
46408;BME280;32110;45.724;21.276;2023-07-22T04:27:29;100298.13;;;19.96;nan
46408;BME280;32110;45.724;21.276;2023-07-22T04:29:55;100261.59;;;19.72;nan
46408;BME280;32110;45.724;21.276;2023-07-22T04:32:21;100319.44;;;20.01;nan
46408;BME280;32110;45.724;21.276;2023-07-22T04:34:46;100320.81;;;19.98;nan
46408;BME280;32110;45.724;21.276;2023-07-22T04:37:11;100316.84;;;19.96;nan
46408;BME280;32110;45.724;21.276;2023-07-22T04:39:38;100313.66;;;19.94;nan
46408;BME280;32110;45.724;21.276;2023-07-22T04:42:03;100317.56;;;20.02;nan
46408;BME280;32110;45.724;21.276;2023-07-22T04:44:29;100318.91;;;19.99;nan
46408;BME280;32110;45.724;21.276;2023-07-22T04:46:54;100287.38;;;19.82;nan
46408;BME280;32110;45.724;21.276;2023-07-22T04:49:20;100299.88;;;19.87;nan
46408;BME280;32110;45.724;21.276;2023-07-22T04:51:47;100324.50;;;20.03;nan
46408;BME280;32110;45.724;21.276;2023-07-22T04:54:12;100320.72;;;20.04;nan
46408;BME280;32110;45.724;21.276;2023-07-22T04:56:38;100311.41;;;20.01;nan
46408;BME280;32110;45.724;21.276;2023-07-22T04:59:04;100326.31;;;20.07;nan
46408;BME280;32110;45.724;21.276;2023-07-22T05:01:29;100322.34;;;20.05;nan
46408;BME280;32110;45.724;21.276;2023-07-22T05:03:55;100308.97;;;20.05;nan
46408;BME280;32110;45.724;21.276;2023-07-22T05:06:21;100310.25;;;20.07;nan
46408;BME280;32110;45.724;21.276;2023-07-22T05:08:46;100303.31;;;20.06;nan
46408;BME280;32110;45.724;21.276;2023-07-22T05:11:12;100309.59;;;20.15;nan
46408;BME280;32110;45.724;21.276;2023-07-22T05:13:37;100302.75;;;20.09;nan
46408;BME280;32110;45.724;21.276;2023-07-22T05:16:03;100315.53;;;20.12;nan
46408;BME280;32110;45.724;21.276;2023-07-22T05:18:28;100325.13;;;20.13;nan
46408;BME280;32110;45.724;21.276;2023-07-22T05:20:54;100336.06;;;20.17;nan
46408;BME280;32110;45.724;21.276;2023-07-22T05:23:19;100342.09;;;20.23;nan
46408;BME280;32110;45.724;21.276;2023-07-22T05:25:50;100337.06;;;20.21;nan
46408;BME280;32110;45.724;21.276;2023-07-22T05:28:17;100329.09;;;20.16;nan
46408;BME280;32110;45.724;21.276;2023-07-22T05:30:42;100334.25;;;20.12;nan
46408;BME280;32110;45.724;21.276;2023-07-22T05:33:07;100327.81;;;20.13;nan
46408;BME280;32110;45.724;21.276;2023-07-22T05:35:33;100337.84;;;20.22;nan
46408;BME280;32110;45.724;21.276;2023-07-22T05:37:58;100348.47;;;20.27;nan
46408;BME280;32110;45.724;21.276;2023-07-22T05:40:24;100349.78;;;20.29;nan
46408;BME280;32110;45.724;21.276;2023-07-22T05:42:49;100345.56;;;20.23;nan
46408;BME280;32110;45.724;21.276;2023-07-22T05:45:14;100338.06;;;20.25;nan
46408;BME280;32110;45.724;21.276;2023-07-22T05:47:41;100346.38;;;20.24;nan
46408;BME280;32110;45.724;21.276;2023-07-22T05:50:07;100358.56;;;20.30;nan
46408;BME280;32110;45.724;21.276;2023-07-22T05:52:32;100374.06;;;20.33;nan
46408;BME280;32110;45.724;21.276;2023-07-22T05:54:58;100362.53;;;20.32;nan
46408;BME280;32110;45.724;21.276;2023-07-22T05:57:23;100368.72;;;20.33;nan
46408;BME280;32110;45.724;21.276;2023-07-22T05:59:48;100367.81;;;20.37;nan
46408;BME280;32110;45.724;21.276;2023-07-22T06:02:14;100369.69;;;20.37;nan
46408;BME280;32110;45.724;21.276;2023-07-22T06:04:39;100375.06;;;20.37;nan
46408;BME280;32110;45.724;21.276;2023-07-22T06:07:05;100380.81;;;20.44;nan
46408;BME280;32110;45.724;21.276;2023-07-22T06:09:30;100389.94;;;20.43;nan
46408;BME280;32110;45.724;21.276;2023-07-22T06:11:56;100393.31;;;20.49;nan
46408;BME280;32110;45.724;21.276;2023-07-22T06:14:21;100387.19;;;20.48;nan
46408;BME280;32110;45.724;21.276;2023-07-22T06:16:47;100377.59;;;20.47;nan
46408;BME280;32110;45.724;21.276;2023-07-22T06:19:12;100379.09;;;20.53;nan
46408;BME280;32110;45.724;21.276;2023-07-22T06:21:37;100374.00;;;20.52;nan
46408;BME280;32110;45.724;21.276;2023-07-22T06:24:03;100372.94;;;20.53;nan
46408;BME280;32110;45.724;21.276;2023-07-22T06:26:28;100364.41;;;20.51;nan
46408;BME280;32110;45.724;21.276;2023-07-22T06:28:54;100391.03;;;20.61;nan
46408;BME280;32110;45.724;21.276;2023-07-22T06:31:19;100368.63;;;20.57;nan
46408;BME280;32110;45.724;21.276;2023-07-22T06:33:45;100371.78;;;20.59;nan
46408;BME280;32110;45.724;21.276;2023-07-22T06:36:10;100379.25;;;20.62;nan
46408;BME280;32110;45.724;21.276;2023-07-22T06:38:36;100381.06;;;20.67;nan
46408;BME280;32110;45.724;21.276;2023-07-22T06:41:01;100390.56;;;20.73;nan
46408;BME280;32110;45.724;21.276;2023-07-22T06:43:26;100394.34;;;20.72;nan
46408;BME280;32110;45.724;21.276;2023-07-22T06:45:52;100367.75;;;20.62;nan
46408;BME280;32110;45.724;21.276;2023-07-22T06:48:17;100380.38;;;20.75;nan
46408;BME280;32110;45.724;21.276;2023-07-22T06:50:49;100378.28;;;20.72;nan
46408;BME280;32110;45.724;21.276;2023-07-22T06:53:14;100371.94;;;20.68;nan
46408;BME280;32110;45.724;21.276;2023-07-22T06:55:47;100381.97;;;20.76;nan
46408;BME280;32110;45.724;21.276;2023-07-22T06:58:13;100394.25;;;20.77;nan
46408;BME280;32110;45.724;21.276;2023-07-22T07:00:38;100397.13;;;20.80;nan
46408;BME280;32110;45.724;21.276;2023-07-22T07:03:04;100392.59;;;20.81;nan
46408;BME280;32110;45.724;21.276;2023-07-22T07:05:29;100386.22;;;20.77;nan
46408;BME280;32110;45.724;21.276;2023-07-22T07:07:55;100405.78;;;20.91;nan
46408;BME280;32110;45.724;21.276;2023-07-22T07:10:20;100401.03;;;20.88;nan
46408;BME280;32110;45.724;21.276;2023-07-22T07:12:45;100397.53;;;20.88;nan
46408;BME280;32110;45.724;21.276;2023-07-22T07:15:14;100393.56;;;20.85;nan
46408;BME280;32110;45.724;21.276;2023-07-22T07:17:39;100401.53;;;20.90;nan
46408;BME280;32110;45.724;21.276;2023-07-22T07:20:05;100401.97;;;20.97;nan
46408;BME280;32110;45.724;21.276;2023-07-22T07:22:31;100403.53;;;20.98;nan
46408;BME280;32110;45.724;21.276;2023-07-22T07:24:59;100404.72;;;21.06;nan
46408;BME280;32110;45.724;21.276;2023-07-22T07:27:24;100403.94;;;21.06;nan
46408;BME280;32110;45.724;21.276;2023-07-22T07:29:50;100422.81;;;21.14;nan
46408;BME280;32110;45.724;21.276;2023-07-22T07:32:15;100407.31;;;21.11;nan
46408;BME280;32110;45.724;21.276;2023-07-22T07:34:40;100426.09;;;21.25;nan
46408;BME280;32110;45.724;21.276;2023-07-22T07:37:06;100424.97;;;21.26;nan
46408;BME280;32110;45.724;21.276;2023-07-22T07:39:31;100427.09;;;21.29;nan
46408;BME280;32110;45.724;21.276;2023-07-22T07:41:56;100417.44;;;21.28;nan
46408;BME280;32110;45.724;21.276;2023-07-22T07:44:22;100449.38;;;21.43;nan
46408;BME280;32110;45.724;21.276;2023-07-22T07:46:47;100424.50;;;21.38;nan
46408;BME280;32110;45.724;21.276;2023-07-22T07:49:13;100449.44;;;21.52;nan
46408;BME280;32110;45.724;21.276;2023-07-22T07:51:39;100448.16;;;21.50;nan
46408;BME280;32110;45.724;21.276;2023-07-22T07:54:04;100441.72;;;21.51;nan
46408;BME280;32110;45.724;21.276;2023-07-22T07:56:32;100468.22;;;21.66;nan
46408;BME280;32110;45.724;21.276;2023-07-22T07:58:57;100460.19;;;21.66;nan
46408;BME280;32110;45.724;21.276;2023-07-22T08:01:23;100461.75;;;21.81;nan
46408;BME280;32110;45.724;21.276;2023-07-22T08:03:48;100476.78;;;21.96;nan
46408;BME280;32110;45.724;21.276;2023-07-22T08:06:14;100478.91;;;22.07;nan
46408;BME280;32110;45.724;21.276;2023-07-22T08:08:39;100469.97;;;22.12;nan
46408;BME280;32110;45.724;21.276;2023-07-22T08:11:16;100465.00;;;22.19;nan
46408;BME280;32110;45.724;21.276;2023-07-22T08:13:42;100469.00;;;22.22;nan
46408;BME280;32110;45.724;21.276;2023-07-22T08:16:10;100476.84;;;22.32;nan
46408;BME280;32110;45.724;21.276;2023-07-22T08:18:36;100484.00;;;22.37;nan
46408;BME280;32110;45.724;21.276;2023-07-22T08:21:03;100484.25;;;22.49;nan
46408;BME280;32110;45.724;21.276;2023-07-22T08:23:29;100480.16;;;22.51;nan
46408;BME280;32110;45.724;21.276;2023-07-22T08:25:54;100478.47;;;22.56;nan
46408;BME280;32110;45.724;21.276;2023-07-22T08:28:20;100478.66;;;22.59;nan
46408;BME280;32110;45.724;21.276;2023-07-22T08:30:45;100483.78;;;22.69;nan
46408;BME280;32110;45.724;21.276;2023-07-22T08:33:11;100488.59;;;22.81;nan
46408;BME280;32110;45.724;21.276;2023-07-22T08:35:37;100480.13;;;22.88;nan
46408;BME280;32110;45.724;21.276;2023-07-22T08:38:03;100474.13;;;22.91;nan
46408;BME280;32110;45.724;21.276;2023-07-22T08:40:39;100471.16;;;22.92;nan
46408;BME280;32110;45.724;21.276;2023-07-22T08:43:07;100475.13;;;22.95;nan
46408;BME280;32110;45.724;21.276;2023-07-22T08:45:34;100480.47;;;23.09;nan
46408;BME280;32110;45.724;21.276;2023-07-22T08:48:08;100484.00;;;23.18;nan
46408;BME280;32110;45.724;21.276;2023-07-22T08:50:52;100489.66;;;23.17;nan
46408;BME280;32110;45.724;21.276;2023-07-22T08:53:18;100476.22;;;23.17;nan
46408;BME280;32110;45.724;21.276;2023-07-22T08:55:49;100477.69;;;23.23;nan
46408;BME280;32110;45.724;21.276;2023-07-22T08:58:14;100470.56;;;23.18;nan
46408;BME280;32110;45.724;21.276;2023-07-22T09:00:42;100480.13;;;23.33;nan
46408;BME280;32110;45.724;21.276;2023-07-22T09:03:08;100470.16;;;23.33;nan
46408;BME280;32110;45.724;21.276;2023-07-22T09:05:35;100469.41;;;23.42;nan
46408;BME280;32110;45.724;21.276;2023-07-22T09:08:04;100475.94;;;23.49;nan
46408;BME280;32110;45.724;21.276;2023-07-22T09:10:31;100480.53;;;23.57;nan
46408;BME280;32110;45.724;21.276;2023-07-22T09:12:59;100478.03;;;23.61;nan
46408;BME280;32110;45.724;21.276;2023-07-22T09:15:25;100490.91;;;23.73;nan
46408;BME280;32110;45.724;21.276;2023-07-22T09:17:51;100476.97;;;23.71;nan
46408;BME280;32110;45.724;21.276;2023-07-22T09:20:16;100481.44;;;23.75;nan
46408;BME280;32110;45.724;21.276;2023-07-22T09:22:51;100484.31;;;23.88;nan
46408;BME280;32110;45.724;21.276;2023-07-22T09:27:43;100489.91;;;24.09;nan
46408;BME280;32110;45.724;21.276;2023-07-22T09:32:45;100491.34;;;24.32;nan
46408;BME280;32110;45.724;21.276;2023-07-22T09:35:10;100496.75;;;24.41;nan
46408;BME280;32110;45.724;21.276;2023-07-22T09:37:36;100492.94;;;24.42;nan
46408;BME280;32110;45.724;21.276;2023-07-22T09:40:16;100499.16;;;24.42;nan
46408;BME280;32110;45.724;21.276;2023-07-22T09:42:49;100493.28;;;24.40;nan
46408;BME280;32110;45.724;21.276;2023-07-22T09:45:16;100487.41;;;24.38;nan
46408;BME280;32110;45.724;21.276;2023-07-22T09:47:43;100497.59;;;24.50;nan
46408;BME280;32110;45.724;21.276;2023-07-22T09:50:21;100467.00;;;24.37;nan
46408;BME280;32110;45.724;21.276;2023-07-22T09:52:54;100487.16;;;24.57;nan
46408;BME280;32110;45.724;21.276;2023-07-22T09:55:25;100466.25;;;24.54;nan
46408;BME280;32110;45.724;21.276;2023-07-22T09:57:57;100478.25;;;24.66;nan
46408;BME280;32110;45.724;21.276;2023-07-22T10:00:25;100482.69;;;24.79;nan
46408;BME280;32110;45.724;21.276;2023-07-22T10:02:53;100492.34;;;24.89;nan
46408;BME280;32110;45.724;21.276;2023-07-22T10:05:21;100484.91;;;24.86;nan
46408;BME280;32110;45.724;21.276;2023-07-22T10:10:15;100488.22;;;25.00;nan
46408;BME280;32110;45.724;21.276;2023-07-22T10:12:41;100485.97;;;25.02;nan
46408;BME280;32110;45.724;21.276;2023-07-22T10:15:12;100484.28;;;24.97;nan
46408;BME280;32110;45.724;21.276;2023-07-22T10:17:42;100475.53;;;24.92;nan
46408;BME280;32110;45.724;21.276;2023-07-22T10:20:09;100456.56;;;24.79;nan
46408;BME280;32110;45.724;21.276;2023-07-22T10:22:44;100471.75;;;24.93;nan
46408;BME280;32110;45.724;21.276;2023-07-22T10:25:11;100471.41;;;24.94;nan
46408;BME280;32110;45.724;21.276;2023-07-22T10:27:38;100483.75;;;25.04;nan
46408;BME280;32110;45.724;21.276;2023-07-22T10:30:06;100477.56;;;25.12;nan
46408;BME280;32110;45.724;21.276;2023-07-22T10:32:36;100469.31;;;25.26;nan
46408;BME280;32110;45.724;21.276;2023-07-22T10:35:02;100464.22;;;25.33;nan
46408;BME280;32110;45.724;21.276;2023-07-22T10:37:32;100477.16;;;25.49;nan
46408;BME280;32110;45.724;21.276;2023-07-22T10:40:26;100479.19;;;25.60;nan
46408;BME280;32110;45.724;21.276;2023-07-22T10:43:03;100427.03;;;25.47;nan
46408;BME280;32110;45.724;21.276;2023-07-22T10:45:31;100457.50;;;25.78;nan
46408;BME280;32110;45.724;21.276;2023-07-22T10:48:06;100475.41;;;25.91;nan
46408;BME280;32110;45.724;21.276;2023-07-22T11:07:02;100470.00;;;25.91;nan
46408;BME280;32110;45.724;21.276;2023-07-22T11:11:58;100490.25;;;26.06;nan
46408;BME280;32110;45.724;21.276;2023-07-22T11:14:28;100471.53;;;26.01;nan
46408;BME280;32110;45.724;21.276;2023-07-22T11:16:56;100481.47;;;26.09;nan
46408;BME280;32110;45.724;21.276;2023-07-22T11:19:23;100468.75;;;26.09;nan
46408;BME280;32110;45.724;21.276;2023-07-22T11:21:50;100489.59;;;26.30;nan
46408;BME280;32110;45.724;21.276;2023-07-22T11:24:16;100488.81;;;26.29;nan
46408;BME280;32110;45.724;21.276;2023-07-22T11:26:41;100484.19;;;26.30;nan
46408;BME280;32110;45.724;21.276;2023-07-22T11:29:08;100481.97;;;26.32;nan
46408;BME280;32110;45.724;21.276;2023-07-22T11:31:38;100459.75;;;26.26;nan
46408;BME280;32110;45.724;21.276;2023-07-22T11:34:07;100474.72;;;26.45;nan
46408;BME280;32110;45.724;21.276;2023-07-22T11:36:33;100473.25;;;26.47;nan
46408;BME280;32110;45.724;21.276;2023-07-22T11:39:22;100479.91;;;26.50;nan
46408;BME280;32110;45.724;21.276;2023-07-22T11:41:47;100478.81;;;26.51;nan
46408;BME280;32110;45.724;21.276;2023-07-22T11:44:15;100473.25;;;26.47;nan
46408;BME280;32110;45.724;21.276;2023-07-22T11:49:22;100461.53;;;26.43;nan
46408;BME280;32110;45.724;21.276;2023-07-22T11:51:47;100477.09;;;26.46;nan
46408;BME280;32110;45.724;21.276;2023-07-22T11:54:12;100480.78;;;26.42;nan
46408;BME280;32110;45.724;21.276;2023-07-22T11:56:40;100476.31;;;26.46;nan
46408;BME280;32110;45.724;21.276;2023-07-22T11:59:05;100469.47;;;26.48;nan
46408;BME280;32110;45.724;21.276;2023-07-22T12:01:34;100476.50;;;26.62;nan
46408;BME280;32110;45.724;21.276;2023-07-22T12:03:59;100475.75;;;26.73;nan
46408;BME280;32110;45.724;21.276;2023-07-22T12:06:26;100474.44;;;26.80;nan
46408;BME280;32110;45.724;21.276;2023-07-22T12:08:52;100456.31;;;26.80;nan
46408;BME280;32110;45.724;21.276;2023-07-22T12:11:20;100457.03;;;26.89;nan
46408;BME280;32110;45.724;21.276;2023-07-22T12:13:46;100454.97;;;26.86;nan
46408;BME280;32110;45.724;21.276;2023-07-22T12:16:21;100450.63;;;26.94;nan
46408;BME280;32110;45.724;21.276;2023-07-22T12:18:47;100466.31;;;27.13;nan
46408;BME280;32110;45.724;21.276;2023-07-22T12:21:14;100457.19;;;27.17;nan
46408;BME280;32110;45.724;21.276;2023-07-22T12:23:41;100440.56;;;27.28;nan
46408;BME280;32110;45.724;21.276;2023-07-22T12:26:07;100448.38;;;27.42;nan
46408;BME280;32110;45.724;21.276;2023-07-22T12:28:32;100452.88;;;27.50;nan
46408;BME280;32110;45.724;21.276;2023-07-22T12:30:58;100432.78;;;27.39;nan
46408;BME280;32110;45.724;21.276;2023-07-22T12:33:24;100443.50;;;27.47;nan
46408;BME280;32110;45.724;21.276;2023-07-22T12:35:50;100445.06;;;27.48;nan
46408;BME280;32110;45.724;21.276;2023-07-22T12:38:15;100443.41;;;27.56;nan
46408;BME280;32110;45.724;21.276;2023-07-22T12:40:41;100438.78;;;27.69;nan
46408;BME280;32110;45.724;21.276;2023-07-22T12:43:06;100443.94;;;27.74;nan
46408;BME280;32110;45.724;21.276;2023-07-22T12:45:32;100444.28;;;27.72;nan
46408;BME280;32110;45.724;21.276;2023-07-22T12:47:57;100435.75;;;27.70;nan
46408;BME280;32110;45.724;21.276;2023-07-22T12:50:22;100433.34;;;27.69;nan
46408;BME280;32110;45.724;21.276;2023-07-22T12:52:48;100445.19;;;27.76;nan
46408;BME280;32110;45.724;21.276;2023-07-22T12:55:13;100438.88;;;27.72;nan
46408;BME280;32110;45.724;21.276;2023-07-22T12:57:40;100438.44;;;27.83;nan
46408;BME280;32110;45.724;21.276;2023-07-22T13:00:05;100430.88;;;27.88;nan
46408;BME280;32110;45.724;21.276;2023-07-22T13:02:35;100446.59;;;28.11;nan
46408;BME280;32110;45.724;21.276;2023-07-22T13:05:00;100445.59;;;28.15;nan
46408;BME280;32110;45.724;21.276;2023-07-22T13:07:25;100429.25;;;28.12;nan
46408;BME280;32110;45.724;21.276;2023-07-22T13:09:58;100411.78;;;28.09;nan
46408;BME280;32110;45.724;21.276;2023-07-22T13:12:39;100426.16;;;28.26;nan
46408;BME280;32110;45.724;21.276;2023-07-22T13:15:04;100436.59;;;28.39;nan
46408;BME280;32110;45.724;21.276;2023-07-22T13:17:31;100444.94;;;28.47;nan
46408;BME280;32110;45.724;21.276;2023-07-22T13:19:57;100427.56;;;28.48;nan
46408;BME280;32110;45.724;21.276;2023-07-22T13:22:22;100410.75;;;28.42;nan
46408;BME280;32110;45.724;21.276;2023-07-22T13:24:47;100427.00;;;28.54;nan
46408;BME280;32110;45.724;21.276;2023-07-22T13:27:13;100418.88;;;28.54;nan